Aviation Digital Data Service (ADDS)

Output produced by METARs form (1813 UTC 03 July 2020)
found at http://aviationweather.gov/metar/data/
 
METAR text: KLVK 031753Z 30005KT 10SM CLR 22/11 A3001 RMK AO2 SLP158 T02170111 10217 20128 50004
Conditions at: KLVK (LIVERMORE , CA, US) observed 1753 UTC 03 July 2020
Temperature: 21.7°C (71°F)
Dewpoint: 11.1°C (52°F) [RH = 51%]
Pressure (altimeter): 30.01 inches Hg (1016.3 mb)
[Sea-level pressure: 1015.8 mb]
Winds: from the WNW (300 degrees) at 6 MPH (5 knots; 2.6 m/s)
Visibility: 10 or more miles (16+ km)
Ceiling: at least 12,000 feet AGL
Clouds: sky clear below 12,000 feet AGL
Weather: no significant weather observed at this time

METAR text: KLVK 031653Z 27005KT 10SM CLR 19/11 A3001 RMK AO2 SLP158 T01940111
Conditions at: KLVK (LIVERMORE , CA, US) observed 1653 UTC 03 July 2020
Temperature: 19.4°C (67°F)
Dewpoint: 11.1°C (52°F) [RH = 59%]
Pressure (altimeter): 30.01 inches Hg (1016.3 mb)
[Sea-level pressure: 1015.8 mb]
Winds: from the W (270 degrees) at 6 MPH (5 knots; 2.6 m/s)
Visibility: 10 or more miles (16+ km)
Ceiling: at least 12,000 feet AGL
Clouds: sky clear below 12,000 feet AGL
Weather: no significant weather observed at this time

METAR text: KLVK 031553Z 24004KT 10SM CLR 17/12 A3001 RMK AO2 SLP158 T01670117
Conditions at: KLVK (LIVERMORE , CA, US) observed 1553 UTC 03 July 2020
Temperature: 16.7°C (62°F)
Dewpoint: 11.7°C (53°F) [RH = 72%]
Pressure (altimeter): 30.01 inches Hg (1016.3 mb)
[Sea-level pressure: 1015.8 mb]
Winds: from the WSW (240 degrees) at 5 MPH (4 knots; 2.1 m/s)
Visibility: 10 or more miles (16+ km)
Ceiling: at least 12,000 feet AGL
Clouds: sky clear below 12,000 feet AGL
Weather: no significant weather observed at this time

METAR text: KLVK 031453Z 25004KT 10SM FEW011 15/12 A3000 RMK AO2 SLP154 T01500117 51016
Conditions at: KLVK (LIVERMORE , CA, US) observed 1453 UTC 03 July 2020
Temperature: 15.0°C (59°F)
Dewpoint: 11.7°C (53°F) [RH = 81%]
Pressure (altimeter): 30.00 inches Hg (1016.0 mb)
[Sea-level pressure: 1015.4 mb]
Winds: from the WSW (250 degrees) at 5 MPH (4 knots; 2.1 m/s)
Visibility: 10 or more miles (16+ km)
Ceiling: at least 12,000 feet AGL
Clouds: few clouds at 1100 feet AGL
Weather: no significant weather observed at this time

METAR text: KLVK 031353Z AUTO 25003KT 9SM CLR 13/11 A2998 RMK AO2 SLP150 T01330111
Conditions at: KLVK (LIVERMORE , CA, US) observed 1353 UTC 03 July 2020
Temperature: 13.3°C (56°F)
Dewpoint: 11.1°C (52°F) [RH = 87%]
Pressure (altimeter): 29.98 inches Hg (1015.3 mb)
[Sea-level pressure: 1015.0 mb]
Winds: from the WSW (250 degrees) at 3 MPH (3 knots; 1.5 m/s)
Visibility: 9 miles (14 km)
Ceiling: at least 12,000 feet AGL
Clouds: sky clear below 12,000 feet AGL
Weather: automated observation with no human augmentation;
there may or may not be significant weather present at this time

METAR text: KLVK 031253Z AUTO 31004KT 9SM CLR 13/11 A2996 RMK AO2 SLP143 T01280111
Conditions at: KLVK (LIVERMORE , CA, US) observed 1253 UTC 03 July 2020
Temperature: 12.8°C (55°F)
Dewpoint: 11.1°C (52°F) [RH = 89%]
Pressure (altimeter): 29.96 inches Hg (1014.6 mb)
[Sea-level pressure: 1014.3 mb]
Winds: from the NW (310 degrees) at 5 MPH (4 knots; 2.1 m/s)
Visibility: 9 miles (14 km)
Ceiling: at least 12,000 feet AGL
Clouds: sky clear below 12,000 feet AGL
Weather: automated observation with no human augmentation;
there may or may not be significant weather present at this time

METAR text: KLVK 031153Z AUTO 30005KT 10SM CLR 13/11 A2995 RMK AO2 SLP137 T01280111 10144 20122 53007
Conditions at: KLVK (LIVERMORE , CA, US) observed 1153 UTC 03 July 2020
Temperature: 12.8°C (55°F)
Dewpoint: 11.1°C (52°F) [RH = 89%]
Pressure (altimeter): 29.95 inches Hg (1014.3 mb)
[Sea-level pressure: 1013.7 mb]
Winds: from the WNW (300 degrees) at 6 MPH (5 knots; 2.6 m/s)
Visibility: 10 or more miles (16+ km)
Ceiling: at least 12,000 feet AGL
Clouds: sky clear below 12,000 feet AGL
Weather: automated observation with no human augmentation;
there may or may not be significant weather present at this time

METAR text: KLVK 031053Z AUTO 28004KT 9SM CLR 13/11 A2994 RMK AO2 SLP134 T01280111
Conditions at: KLVK (LIVERMORE , CA, US) observed 1053 UTC 03 July 2020
Temperature: 12.8°C (55°F)
Dewpoint: 11.1°C (52°F) [RH = 89%]
Pressure (altimeter): 29.94 inches Hg (1014.0 mb)
[Sea-level pressure: 1013.4 mb]
Winds: from the W (280 degrees) at 5 MPH (4 knots; 2.1 m/s)
Visibility: 9 miles (14 km)
Ceiling: at least 12,000 feet AGL
Clouds: sky clear below 12,000 feet AGL
Weather: automated observation with no human augmentation;
there may or may not be significant weather present at this time

Forecast for: KLVK (LIVERMORE , CA, US)
Text: KLVK 031724Z 0318/0418 26007KT P6SM SKC
Forecast period: 1800 to 2100 UTC 03 July 2020
Forecast type: FROM: standard forecast or significant change
Winds: from the W (260 degrees) at 8 MPH (7 knots; 3.6 m/s)
Visibility: 6 or more miles 10+ km)
Clouds: clear skies
Weather: no significant weather forecast for this period
Text: FM032100 29014KT P6SM SKC
Forecast period: 2100 UTC 03 July 2020 to 0300 UTC 04 July 2020
Forecast type: FROM: standard forecast or significant change
Winds: from the WNW (290 degrees) at 16 MPH (14 knots; 7.2 m/s)
Visibility: 6 or more miles 10+ km)
Clouds: clear skies
Weather: no significant weather forecast for this period
Text: FM040300 26008KT P6SM SKC
Forecast period: 0300 to 0800 UTC 04 July 2020
Forecast type: FROM: standard forecast or significant change
Winds: from the W (260 degrees) at 9 MPH (8 knots; 4.1 m/s)
Visibility: 6 or more miles 10+ km)
Clouds: clear skies
Weather: no significant weather forecast for this period
Text: FM040800 VRB04KT P6SM SKC
Forecast period: 0800 to 1500 UTC 04 July 2020
Forecast type: FROM: standard forecast or significant change
Winds: variable direction winds at 5 MPH (4 knots; 2.1 m/s)
Visibility: 6 or more miles 10+ km)
Clouds: clear skies
Weather: no significant weather forecast for this period
Text: FM041500 26007KT P6SM SKC
Forecast period: 1500 to 1800 UTC 04 July 2020
Forecast type: FROM: standard forecast or significant change
Winds: from the W (260 degrees) at 8 MPH (7 knots; 3.6 m/s)
Visibility: 6 or more miles 10+ km)
Clouds: clear skies
Weather: no significant weather forecast for this period